Time;durP1;ratioP1;P1;durP2;ratioP2;P2;SDS_P1;SDS_P2;PMS_P1;PMS_P2;Temp;Humidity;BMP_temperature;BMP_pressure;BME280_temperature;BME280_humidity;BME280_pressure;Samples;Min_cycle;Max_cycle;Signal;HPM_P1;HPM_P2
2021/03/04 00:01:43;;;;;;;55.60;39.70;;;;;;;;;;4963394;28;21083;-64
2021/03/04 00:04:10;;;;;;;56.00;42.43;;;;;;;;;;4953073;28;20476;-63
2021/03/04 00:06:36;;;;;;;57.20;42.20;;;;;;;;;;4965891;28;21175;-63
2021/03/04 00:09:03;;;;;;;53.93;41.77;;;;;;;;;;4970261;28;20486;-63
2021/03/04 00:11:29;;;;;;;56.07;42.80;;;;;;;;;;4971979;28;21026;-64
2021/03/04 00:13:57;;;;;;;60.60;44.37;;;;;;;;;;4973339;28;20479;-64
2021/03/04 00:16:23;;;;;;;53.43;39.80;;;;;;;;;;4981305;28;21148;-64
2021/03/04 00:18:50;;;;;;;65.60;47.47;;;;;;;;;;4972875;28;20471;-64
2021/03/04 00:21:17;;;;;;;57.50;46.20;;;;;;;;;;4956284;28;20959;-63
2021/03/04 00:23:43;;;;;;;60.23;47.90;;;;;;;;;;4955586;28;20531;-63
2021/03/04 00:26:10;;;;;;;66.00;48.30;;;;;;;;;;4962665;28;20553;-64
2021/03/04 00:28:37;;;;;;;69.83;50.80;;;;;;;;;;4975326;28;20542;-63
2021/03/04 00:31:04;;;;;;;68.80;51.30;;;;;;;;;;4958211;28;20491;-64
2021/03/04 00:33:31;;;;;;;62.87;45.77;;;;;;;;;;4977144;28;20470;-64
2021/03/04 00:35:57;;;;;;;72.87;55.73;;;;;;;;;;4971438;28;21002;-63
2021/03/04 00:38:24;;;;;;;72.73;54.93;;;;;;;;;;4988520;28;20452;-64
2021/03/04 00:40:51;;;;;;;70.57;54.90;;;;;;;;;;4959408;28;20897;-64
2021/03/04 00:43:17;;;;;;;64.03;49.87;;;;;;;;;;4973239;28;20472;-64
2021/03/04 00:45:44;;;;;;;72.90;56.83;;;;;;;;;;4979924;28;20490;-64
2021/03/04 00:48:12;;;;;;;71.50;54.67;;;;;;;;;;4977568;28;20458;-64
2021/03/04 00:50:39;;;;;;;75.53;52.30;;;;;;;;;;4959753;28;20488;-64
2021/03/04 00:53:05;;;;;;;68.97;50.70;;;;;;;;;;4990146;28;20458;-64
2021/03/04 00:55:32;;;;;;;66.20;48.27;;;;;;;;;;4972587;28;20833;-63
2021/03/04 00:57:59;;;;;;;63.57;48.00;;;;;;;;;;4973468;28;20883;-64
2021/03/04 01:00:26;;;;;;;64.17;50.80;;;;;;;;;;4967722;28;20467;-64
2021/03/04 01:02:52;;;;;;;73.43;48.70;;;;;;;;;;4980040;28;20464;-65
2021/03/04 01:05:20;;;;;;;58.50;46.20;;;;;;;;;;4985349;23;20494;-67
2021/03/04 01:07:47;;;;;;;48.60;38.83;;;;;;;;;;4950930;28;20480;-65
2021/03/04 01:10:16;;;;;;;46.40;39.20;;;;;;;;;;4955057;29;20492;-64
2021/03/04 01:12:42;;;;;;;44.13;35.20;;;;;;;;;;4953019;28;20464;-63
2021/03/04 01:15:11;;;;;;;41.63;32.37;;;;;;;;;;4955244;28;20462;-65
2021/03/04 01:17:38;;;;;;;37.27;29.63;;;;;;;;;;4945462;29;20461;-63
2021/03/04 01:20:06;;;;;;;36.33;29.97;;;;;;;;;;4934587;29;20469;-63
2021/03/04 01:22:34;;;;;;;30.87;24.63;;;;;;;;;;4934937;29;20480;-64
2021/03/04 01:25:00;;;;;;;32.33;27.70;;;;;;;;;;4933348;29;20484;-63
2021/03/04 01:27:27;;;;;;;31.80;25.77;;;;;;;;;;4931860;29;21023;-65
2021/03/04 01:29:54;;;;;;;32.47;26.90;;;;;;;;;;4936351;29;21050;-63
2021/03/04 01:32:20;;;;;;;34.30;28.00;;;;;;;;;;4935547;29;20469;-63
2021/03/04 01:34:47;;;;;;;33.47;27.10;;;;;;;;;;4945403;29;20480;-63
2021/03/04 01:37:13;;;;;;;30.43;25.23;;;;;;;;;;4932326;29;20500;-65
2021/03/04 01:39:41;;;;;;;26.83;22.30;;;;;;;;;;4930817;29;20473;-63
2021/03/04 01:42:08;;;;;;;27.67;22.47;;;;;;;;;;4935493;29;20578;-64
2021/03/04 01:44:34;;;;;;;27.87;22.70;;;;;;;;;;4934735;29;20546;-62
2021/03/04 01:47:01;;;;;;;28.50;23.50;;;;;;;;;;4932892;29;20489;-62
2021/03/04 01:49:28;;;;;;;24.20;19.17;;;;;;;;;;4929666;29;20470;-62
2021/03/04 01:51:55;;;;;;;21.87;19.47;;;;;;;;;;4925577;29;21038;-62
2021/03/04 01:54:21;;;;;;;25.90;21.57;;;;;;;;;;4934991;29;20469;-64
2021/03/04 01:56:49;;;;;;;24.93;19.40;;;;;;;;;;4935078;29;20544;-65
2021/03/04 01:59:15;;;;;;;24.10;20.50;;;;;;;;;;4936487;29;20475;-64
2021/03/04 02:04:47;;;;;;;24.33;19.77;;;;;;;;;;4933566;29;20436;-64
2021/03/04 02:07:15;;;;;;;17.60;15.73;;;;;;;;;;4933570;29;20587;-62
2021/03/04 02:09:44;;;;;;;20.97;18.27;;;;;;;;;;4934788;29;20545;-62
2021/03/04 02:12:20;;;;;;;21.67;17.30;;;;;;;;;;4934733;29;20460;-67
2021/03/04 02:14:49;;;;;;;16.30;14.57;;;;;;;;;;4927574;29;20469;-62
2021/03/04 02:17:16;;;;;;;19.27;15.70;;;;;;;;;;4934627;29;20576;-62
2021/03/04 02:19:49;;;;;;;18.23;16.07;;;;;;;;;;4938023;29;21031;-63
2021/03/04 02:22:30;;;;;;;19.17;15.87;;;;;;;;;;4934476;29;20552;-63
2021/03/04 02:25:00;;;;;;;15.13;13.57;;;;;;;;;;4921915;29;20540;-64
2021/03/04 02:27:28;;;;;;;15.63;13.53;;;;;;;;;;4933813;29;20942;-62
2021/03/04 02:30:00;;;;;;;14.83;13.17;;;;;;;;;;4920713;29;20582;-62
2021/03/04 02:32:27;;;;;;;16.93;12.63;;;;;;;;;;4916199;29;20521;-64
2021/03/04 02:34:57;;;;;;;15.07;13.40;;;;;;;;;;4941628;28;20551;-64
2021/03/04 02:37:25;;;;;;;14.37;12.87;;;;;;;;;;4944551;28;20517;-64
2021/03/04 02:39:53;;;;;;;15.43;12.20;;;;;;;;;;4926193;29;20620;-64
2021/03/04 02:42:22;;;;;;;15.20;13.60;;;;;;;;;;4934263;29;20543;-64
2021/03/04 02:44:50;;;;;;;14.57;12.20;;;;;;;;;;4933852;29;20556;-65
2021/03/04 02:47:18;;;;;;;12.53;11.33;;;;;;;;;;4932624;29;20493;-63
2021/03/04 02:49:45;;;;;;;12.33;11.17;;;;;;;;;;4933072;29;20627;-64
2021/03/04 02:52:12;;;;;;;12.20;11.00;;;;;;;;;;4934042;29;21101;-64
2021/03/04 02:54:40;;;;;;;11.10;9.90;;;;;;;;;;4933056;29;20468;-64
2021/03/04 02:57:08;;;;;;;11.93;9.73;;;;;;;;;;4934400;29;20556;-64
2021/03/04 02:59:35;;;;;;;11.67;10.57;;;;;;;;;;4924957;29;20477;-63
2021/03/04 03:02:04;;;;;;;13.30;10.83;;;;;;;;;;4928839;29;20588;-64
2021/03/04 03:04:31;;;;;;;11.50;10.30;;;;;;;;;;4934341;29;20540;-63
2021/03/04 03:07:00;;;;;;;11.73;10.53;;;;;;;;;;4933010;29;20484;-64
2021/03/04 03:09:27;;;;;;;11.87;10.63;;;;;;;;;;4929169;29;20499;-64
2021/03/04 03:11:53;;;;;;;11.80;10.70;;;;;;;;;;4927711;29;20505;-63
2021/03/04 03:14:20;;;;;;;12.33;10.97;;;;;;;;;;4934221;29;20453;-64
2021/03/04 03:16:47;;;;;;;13.60;12.20;;;;;;;;;;4932976;29;20556;-63
2021/03/04 03:19:15;;;;;;;14.70;13.20;;;;;;;;;;4933827;29;20560;-65
2021/03/04 03:21:41;;;;;;;14.63;13.00;;;;;;;;;;4933033;29;20548;-63
2021/03/04 03:24:08;;;;;;;16.57;13.47;;;;;;;;;;4934123;29;20473;-63
2021/03/04 03:26:36;;;;;;;13.60;12.10;;;;;;;;;;4932072;29;20473;-63
2021/03/04 03:29:03;;;;;;;11.40;9.70;;;;;;;;;;4930628;29;20456;-63
2021/03/04 03:31:30;;;;;;;12.07;10.77;;;;;;;;;;4935757;28;20851;-65
2021/03/04 03:33:57;;;;;;;11.37;10.27;;;;;;;;;;4933441;29;20469;-64
2021/03/04 03:36:25;;;;;;;11.80;10.80;;;;;;;;;;4933685;29;20473;-63
2021/03/04 03:38:53;;;;;;;12.33;10.80;;;;;;;;;;4933374;29;20810;-63
2021/03/04 03:41:20;;;;;;;14.67;10.17;;;;;;;;;;4932975;29;20799;-63
2021/03/04 03:43:48;;;;;;;11.60;9.50;;;;;;;;;;4932519;29;20465;-63
2021/03/04 03:46:15;;;;;;;11.63;10.53;;;;;;;;;;4933029;29;20489;-63
2021/03/04 03:48:42;;;;;;;10.27;9.27;;;;;;;;;;4936553;29;20469;-63
2021/03/04 03:51:09;;;;;;;11.33;10.23;;;;;;;;;;4937638;29;20489;-63
2021/03/04 03:53:37;;;;;;;12.07;10.87;;;;;;;;;;4928468;29;20474;-63
2021/03/04 03:56:04;;;;;;;11.07;9.93;;;;;;;;;;4931854;29;20481;-64
2021/03/04 03:58:31;;;;;;;13.27;10.87;;;;;;;;;;4927637;29;20470;-64
2021/03/04 04:00:59;;;;;;;10.17;9.17;;;;;;;;;;4924192;29;20473;-63
2021/03/04 04:03:25;;;;;;;9.20;8.30;;;;;;;;;;4937334;29;20461;-63
2021/03/04 04:05:52;;;;;;;9.40;8.50;;;;;;;;;;4936369;29;20500;-63
2021/03/04 04:08:19;;;;;;;9.60;8.70;;;;;;;;;;4937466;29;20449;-65
2021/03/04 04:10:47;;;;;;;9.63;8.40;;;;;;;;;;4935717;29;20484;-63
2021/03/04 04:13:14;;;;;;;8.03;7.33;;;;;;;;;;4937171;29;20526;-64
2021/03/04 04:15:41;;;;;;;11.30;8.53;;;;;;;;;;4925689;29;20544;-64
2021/03/04 04:18:08;;;;;;;8.57;7.80;;;;;;;;;;4918339;29;20798;-64
2021/03/04 04:20:34;;;;;;;8.53;7.77;;;;;;;;;;4933626;29;20472;-63
2021/03/04 04:23:01;;;;;;;8.80;8.00;;;;;;;;;;4935882;29;20473;-64
2021/03/04 04:25:28;;;;;;;9.67;8.87;;;;;;;;;;4937021;29;20453;-65
2021/03/04 04:27:57;;;;;;;8.83;7.93;;;;;;;;;;4933763;29;20469;-64
2021/03/04 04:30:25;;;;;;;10.10;9.00;;;;;;;;;;4936236;29;20496;-64
2021/03/04 04:32:52;;;;;;;8.60;7.80;;;;;;;;;;4926020;29;20529;-64
2021/03/04 04:35:18;;;;;;;8.37;7.77;;;;;;;;;;4935028;29;20469;-64
2021/03/04 04:37:45;;;;;;;8.30;7.60;;;;;;;;;;4937110;29;20803;-64
2021/03/04 04:40:12;;;;;;;8.57;7.77;;;;;;;;;;4925453;29;20469;-64
2021/03/04 04:42:39;;;;;;;7.53;6.83;;;;;;;;;;4935852;29;20465;-64
2021/03/04 04:45:08;;;;;;;9.37;8.47;;;;;;;;;;4935433;29;20473;-64
2021/03/04 04:47:35;;;;;;;8.00;7.10;;;;;;;;;;4936049;29;20492;-65
2021/03/04 04:50:02;;;;;;;7.50;6.80;;;;;;;;;;4935609;29;20500;-65
2021/03/04 04:52:28;;;;;;;7.93;7.23;;;;;;;;;;4936892;29;20464;-65
2021/03/04 04:54:55;;;;;;;9.37;8.23;;;;;;;;;;4935612;29;20469;-65
2021/03/04 04:57:22;;;;;;;9.97;8.97;;;;;;;;;;4935423;29;20481;-64
2021/03/04 04:59:49;;;;;;;8.20;7.50;;;;;;;;;;4933123;29;20466;-64
2021/03/04 05:02:16;;;;;;;8.70;7.83;;;;;;;;;;4933656;29;20833;-66
2021/03/04 05:04:43;;;;;;;9.50;8.30;;;;;;;;;;4927790;29;20825;-64
2021/03/04 05:07:10;;;;;;;10.00;9.13;;;;;;;;;;4935071;29;20489;-64
2021/03/04 05:09:36;;;;;;;10.80;9.80;;;;;;;;;;4936332;29;20961;-63
2021/03/04 05:12:03;;;;;;;10.23;9.40;;;;;;;;;;4935392;29;20528;-65
2021/03/04 05:14:30;;;;;;;9.93;9.03;;;;;;;;;;4936595;29;20445;-65
2021/03/04 05:16:56;;;;;;;9.87;9.07;;;;;;;;;;4935031;29;20485;-64
2021/03/04 05:19:24;;;;;;;9.87;9.17;;;;;;;;;;4934963;29;20505;-65
2021/03/04 05:21:50;;;;;;;9.67;8.87;;;;;;;;;;4933220;29;20488;-63
2021/03/04 05:24:17;;;;;;;9.50;8.80;;;;;;;;;;4935172;29;20461;-64
2021/03/04 05:26:44;;;;;;;9.90;9.00;;;;;;;;;;4935634;29;20485;-64
2021/03/04 05:29:10;;;;;;;9.27;8.43;;;;;;;;;;4934853;29;20960;-65
2021/03/04 05:31:37;;;;;;;10.33;9.57;;;;;;;;;;4935823;29;20484;-64
2021/03/04 05:34:03;;;;;;;9.80;8.80;;;;;;;;;;4936623;29;20477;-64
2021/03/04 05:36:31;;;;;;;9.30;8.60;;;;;;;;;;4935423;29;20500;-64
2021/03/04 05:38:58;;;;;;;8.70;7.97;;;;;;;;;;4930212;29;21059;-64
2021/03/04 05:41:25;;;;;;;9.17;8.40;;;;;;;;;;4928641;29;20461;-65
2021/03/04 05:43:51;;;;;;;7.77;7.13;;;;;;;;;;4935085;29;20524;-63
2021/03/04 05:46:20;;;;;;;8.13;7.53;;;;;;;;;;4938640;29;21006;-64
2021/03/04 05:48:48;;;;;;;8.20;7.60;;;;;;;;;;4953445;28;20522;-64
2021/03/04 05:51:15;;;;;;;8.50;7.80;;;;;;;;;;4950027;28;20585;-65
2021/03/04 05:53:46;;;;;;;9.23;8.53;;;;;;;;;;4933640;29;20481;-64
2021/03/04 05:56:15;;;;;;;9.00;8.30;;;;;;;;;;4934463;29;20544;-65
2021/03/04 05:58:42;;;;;;;8.67;7.83;;;;;;;;;;4933857;29;20532;-65
2021/03/04 06:01:08;;;;;;;8.33;7.73;;;;;;;;;;4926806;29;20449;-64
2021/03/04 06:03:35;;;;;;;8.80;8.07;;;;;;;;;;4937436;29;20491;-64
2021/03/04 06:06:02;;;;;;;8.10;7.50;;;;;;;;;;4933392;29;20491;-63
2021/03/04 06:08:28;;;;;;;10.17;9.27;;;;;;;;;;4934990;29;20466;-64
2021/03/04 06:10:56;;;;;;;8.60;7.80;;;;;;;;;;4934925;29;20558;-64
2021/03/04 06:13:22;;;;;;;8.33;7.63;;;;;;;;;;4933539;29;20469;-64
2021/03/04 06:15:49;;;;;;;8.97;8.27;;;;;;;;;;4934860;29;20985;-64
2021/03/04 06:18:15;;;;;;;9.10;8.20;;;;;;;;;;4933272;29;20512;-64
2021/03/04 06:20:42;;;;;;;9.33;8.20;;;;;;;;;;4933792;29;20984;-63
2021/03/04 06:23:09;;;;;;;8.93;7.30;;;;;;;;;;4927737;29;20469;-65
2021/03/04 06:25:36;;;;;;;8.43;7.73;;;;;;;;;;4933989;29;20934;-65
2021/03/04 06:28:04;;;;;;;8.20;7.70;;;;;;;;;;4931135;29;20469;-64
2021/03/04 06:30:34;;;;;;;8.97;7.77;;;;;;;;;;4933492;29;20493;-64
2021/03/04 06:33:01;;;;;;;9.27;8.30;;;;;;;;;;4933597;29;20503;-63
2021/03/04 06:35:31;;;;;;;10.43;9.30;;;;;;;;;;4928167;29;20465;-64
2021/03/04 06:37:57;;;;;;;9.20;8.40;;;;;;;;;;4933875;29;20524;-64
2021/03/04 06:40:25;;;;;;;9.60;8.90;;;;;;;;;;4934209;29;20457;-64
2021/03/04 06:42:52;;;;;;;9.40;8.63;;;;;;;;;;4931237;29;20480;-64
2021/03/04 06:45:30;;;;;;;10.17;9.27;;;;;;;;;;4933850;29;20472;-65
2021/03/04 06:48:06;;;;;;;9.03;8.23;;;;;;;;;;4931590;29;20512;-63
2021/03/04 06:50:33;;;;;;;8.53;7.93;;;;;;;;;;4917868;29;20490;-65
2021/03/04 06:53:11;;;;;;;7.83;7.23;;;;;;;;;;4933642;29;20532;-63
2021/03/04 06:55:47;;;;;;;7.50;6.90;;;;;;;;;;4933543;29;21023;-63
2021/03/04 06:58:14;;;;;;;9.03;8.13;;;;;;;;;;4936969;29;20472;-64
2021/03/04 07:00:41;;;;;;;7.83;7.23;;;;;;;;;;4915618;29;20445;-63
2021/03/04 07:03:08;;;;;;;8.23;7.40;;;;;;;;;;4925491;29;20472;-64
2021/03/04 07:05:34;;;;;;;7.90;7.20;;;;;;;;;;4931255;29;20508;-64
2021/03/04 07:08:01;;;;;;;7.60;7.00;;;;;;;;;;4974396;23;20500;-63
2021/03/04 07:10:29;;;;;;;7.20;6.57;;;;;;;;;;4951562;28;20499;-64
2021/03/04 07:12:57;;;;;;;7.40;6.60;;;;;;;;;;4948986;29;20480;-63
2021/03/04 07:15:23;;;;;;;7.70;6.97;;;;;;;;;;4953256;29;20492;-64
2021/03/04 07:17:51;;;;;;;10.77;7.47;;;;;;;;;;4952378;29;20889;-65
2021/03/04 07:20:19;;;;;;;7.47;6.87;;;;;;;;;;4948033;28;20473;-64
2021/03/04 07:22:47;;;;;;;11.13;7.60;;;;;;;;;;4942740;29;20448;-63
2021/03/04 07:25:14;;;;;;;7.37;6.77;;;;;;;;;;4956235;28;20468;-64
2021/03/04 07:27:41;;;;;;;7.63;6.97;;;;;;;;;;4956658;29;21301;-64
2021/03/04 07:30:08;;;;;;;8.57;7.00;;;;;;;;;;4955523;28;20833;-64
2021/03/04 07:32:35;;;;;;;7.40;6.80;;;;;;;;;;4956459;28;20464;-64
2021/03/04 07:35:04;;;;;;;7.17;6.43;;;;;;;;;;4955551;28;20987;-63
2021/03/04 07:37:31;;;;;;;5.50;3.57;;;;;;;;;;4955901;28;20480;-63
2021/03/04 07:40:00;;;;;;;6.03;3.17;;;;;;;;;;4955863;28;20475;-65
2021/03/04 07:42:27;;;;;;;4.30;2.77;;;;;;;;;;4956777;28;20448;-62
2021/03/04 07:44:55;;;;;;;5.17;2.90;;;;;;;;;;4956003;28;20959;-61
2021/03/04 07:47:26;;;;;;;3.57;2.67;;;;;;;;;;4956276;29;20477;-61
2021/03/04 07:49:52;;;;;;;5.67;2.40;;;;;;;;;;4955267;28;20904;-62
2021/03/04 07:52:20;;;;;;;3.43;2.23;;;;;;;;;;4954987;29;20492;-62
2021/03/04 07:54:48;;;;;;;3.00;2.50;;;;;;;;;;4947405;28;20504;-61
2021/03/04 07:57:15;;;;;;;3.73;2.23;;;;;;;;;;4944501;29;20488;-62
2021/03/04 07:59:53;;;;;;;3.50;2.00;;;;;;;;;;4949648;29;20468;-62
2021/03/04 08:02:24;;;;;;;2.90;2.03;;;;;;;;;;4955577;28;20551;-62
2021/03/04 08:04:50;;;;;;;3.90;1.60;;;;;;;;;;4955890;28;20463;-62
2021/03/04 08:07:27;;;;;;;2.90;1.70;;;;;;;;;;4955486;29;20506;-62
2021/03/04 08:10:05;;;;;;;5.07;1.60;;;;;;;;;;4955361;28;20463;-61
2021/03/04 08:12:31;;;;;;;3.27;1.93;;;;;;;;;;4954502;28;20475;-62
2021/03/04 08:14:59;;;;;;;3.70;1.43;;;;;;;;;;4955675;28;20467;-62
2021/03/04 08:17:35;;;;;;;2.90;1.50;;;;;;;;;;4954623;28;20611;-62
2021/03/04 08:20:06;;;;;;;1.90;1.27;;;;;;;;;;4954102;28;20978;-62
2021/03/04 08:22:34;;;;;;;1.60;1.23;;;;;;;;;;4952390;29;20459;-61
2021/03/04 08:25:02;;;;;;;2.30;1.17;;;;;;;;;;4960005;28;20467;-62
2021/03/04 08:27:28;;;;;;;3.23;1.83;;;;;;;;;;4956021;28;20472;-62
2021/03/04 08:29:57;;;;;;;4.23;1.77;;;;;;;;;;4955161;28;20523;-61
2021/03/04 08:32:23;;;;;;;2.60;1.70;;;;;;;;;;4959185;28;20483;-62
2021/03/04 08:34:50;;;;;;;2.13;1.17;;;;;;;;;;4956111;29;20456;-60
2021/03/04 08:37:22;;;;;;;7.80;2.00;;;;;;;;;;4955625;28;20480;-60
2021/03/04 08:39:50;;;;;;;1.80;1.13;;;;;;;;;;4955824;28;20937;-60
2021/03/04 08:42:16;;;;;;;2.47;1.27;;;;;;;;;;4955025;28;20961;-60
2021/03/04 08:44:52;;;;;;;4.40;2.10;;;;;;;;;;4956183;29;20456;-62
2021/03/04 08:47:19;;;;;;;4.97;1.70;;;;;;;;;;4955726;28;20495;-60
2021/03/04 08:49:52;;;;;;;3.50;1.40;;;;;;;;;;4956296;29;20460;-60
2021/03/04 08:52:23;;;;;;;2.30;1.33;;;;;;;;;;4956705;28;20492;-60
2021/03/04 08:54:51;;;;;;;3.40;2.17;;;;;;;;;;4956239;29;20457;-60
2021/03/04 08:57:24;;;;;;;4.30;1.80;;;;;;;;;;4957195;29;20499;-61
2021/03/04 09:00:01;;;;;;;3.70;1.20;;;;;;;;;;4959394;29;20456;-61
2021/03/04 09:02:28;;;;;;;5.53;2.37;;;;;;;;;;4961907;28;20444;-60
2021/03/04 09:04:54;;;;;;;3.83;1.40;;;;;;;;;;4959452;28;20451;-61
2021/03/04 09:07:28;;;;;;;5.17;1.90;;;;;;;;;;4958228;28;20511;-61
2021/03/04 09:09:59;;;;;;;3.83;2.00;;;;;;;;;;4959364;28;20459;-61
2021/03/04 09:12:26;;;;;;;3.70;1.30;;;;;;;;;;4956963;28;20468;-61
2021/03/04 09:14:55;;;;;;;6.67;2.20;;;;;;;;;;4958782;29;20456;-62
2021/03/04 09:17:21;;;;;;;7.27;4.20;;;;;;;;;;4956548;28;20472;-65
2021/03/04 09:19:53;;;;;;;5.80;5.30;;;;;;;;;;4952825;28;20483;-63
2021/03/04 09:22:19;;;;;;;9.60;6.10;;;;;;;;;;4950562;29;20445;-63
2021/03/04 09:24:46;;;;;;;8.87;5.77;;;;;;;;;;4958537;28;20447;-63
2021/03/04 09:27:17;;;;;;;10.23;5.73;;;;;;;;;;4953595;28;20479;-63
2021/03/04 09:29:44;;;;;;;9.70;6.60;;;;;;;;;;4957313;28;20440;-63
2021/03/04 09:32:12;;;;;;;7.77;6.20;;;;;;;;;;4954750;28;20491;-63
2021/03/04 09:34:39;;;;;;;6.03;5.53;;;;;;;;;;4953812;29;20863;-63
2021/03/04 09:37:07;;;;;;;6.80;6.20;;;;;;;;;;4957796;28;20483;-63
2021/03/04 09:39:40;;;;;;;11.53;6.33;;;;;;;;;;4953927;29;20448;-63
2021/03/04 09:42:07;;;;;;;9.10;5.93;;;;;;;;;;4954595;29;20956;-63
2021/03/04 09:44:44;;;;;;;8.13;6.83;;;;;;;;;;4953507;28;20453;-62
2021/03/04 09:47:16;;;;;;;7.43;6.70;;;;;;;;;;4954288;29;21150;-63
2021/03/04 09:49:42;;;;;;;8.33;6.00;;;;;;;;;;4954303;29;20456;-63
2021/03/04 09:52:17;;;;;;;12.10;6.30;;;;;;;;;;4954742;28;20483;-63
2021/03/04 09:54:43;;;;;;;7.00;6.27;;;;;;;;;;4953694;28;20455;-63
2021/03/04 09:57:10;;;;;;;8.83;6.80;;;;;;;;;;4955530;28;20480;-63
2021/03/04 09:59:44;;;;;;;10.97;7.70;;;;;;;;;;4953371;28;21097;-63
2021/03/04 10:02:11;;;;;;;7.60;4.97;;;;;;;;;;4953878;29;20433;-63
2021/03/04 10:04:38;;;;;;;8.00;6.70;;;;;;;;;;4954319;29;20457;-63
2021/03/04 10:07:13;;;;;;;10.63;6.97;;;;;;;;;;4953550;29;20495;-63
2021/03/04 10:09:40;;;;;;;7.93;6.20;;;;;;;;;;4953856;29;20444;-63
2021/03/04 10:12:06;;;;;;;1.70;1.60;;;;;;;;;;4953482;28;20488;-65
2021/03/04 10:14:42;;;;;;;6.90;4.90;;;;;;;;;;4957613;28;20451;-64
2021/03/04 10:17:10;;;;;;;7.90;5.87;;;;;;;;;;4958185;28;20479;-64
2021/03/04 10:19:37;;;;;;;9.77;6.90;;;;;;;;;;4953954;28;20459;-65
2021/03/04 10:22:04;;;;;;;8.67;6.80;;;;;;;;;;4953236;29;20449;-65
2021/03/04 10:24:30;;;;;;;7.50;6.70;;;;;;;;;;4954094;28;20496;-64
2021/03/04 10:26:58;;;;;;;7.50;5.80;;;;;;;;;;4952781;28;21019;-65
2021/03/04 10:29:25;;;;;;;8.23;5.77;;;;;;;;;;4953888;28;20461;-65
2021/03/04 10:31:52;;;;;;;5.57;5.00;;;;;;;;;;4953649;29;20902;-64
2021/03/04 10:34:20;;;;;;;6.30;4.80;;;;;;;;;;4953680;28;20457;-65
2021/03/04 10:36:46;;;;;;;7.97;5.53;;;;;;;;;;4952828;28;20486;-64
2021/03/04 10:39:14;;;;;;;7.73;5.70;;;;;;;;;;4953621;29;20540;-64
2021/03/04 10:41:41;;;;;;;8.20;6.20;;;;;;;;;;4953131;28;20451;-65
2021/03/04 10:44:08;;;;;;;11.87;6.27;;;;;;;;;;4953358;28;20460;-64
2021/03/04 10:46:35;;;;;;;8.40;5.87;;;;;;;;;;4953673;29;20495;-64
2021/03/04 10:49:01;;;;;;;7.53;5.70;;;;;;;;;;4953238;29;20456;-64
2021/03/04 10:51:29;;;;;;;10.87;6.30;;;;;;;;;;4953459;29;20511;-65
2021/03/04 10:53:55;;;;;;;7.60;5.80;;;;;;;;;;4953120;28;20955;-64
2021/03/04 10:56:22;;;;;;;8.20;5.93;;;;;;;;;;4953124;28;20480;-65
2021/03/04 10:58:48;;;;;;;7.23;6.30;;;;;;;;;;4953372;29;20853;-66
2021/03/04 11:01:15;;;;;;;10.83;6.73;;;;;;;;;;4953310;29;20511;-66
2021/03/04 11:03:42;;;;;;;9.67;5.70;;;;;;;;;;4952949;28;21467;-66
2021/03/04 11:06:08;;;;;;;8.97;5.90;;;;;;;;;;4951587;28;20456;-66
2021/03/04 11:08:36;;;;;;;9.53;6.30;;;;;;;;;;4952803;28;20444;-65
2021/03/04 11:11:02;;;;;;;10.13;6.40;;;;;;;;;;4952468;28;21021;-66
2021/03/04 11:13:29;;;;;;;9.00;6.13;;;;;;;;;;4971706;28;20456;-66
2021/03/04 11:15:56;;;;;;;7.83;6.17;;;;;;;;;;4968829;28;20455;-66
2021/03/04 11:18:22;;;;;;;12.37;6.70;;;;;;;;;;4954415;28;20456;-66
2021/03/04 11:20:49;;;;;;;10.27;6.40;;;;;;;;;;4952103;29;20518;-66
2021/03/04 11:23:15;;;;;;;13.63;6.20;;;;;;;;;;4953254;29;20448;-65
2021/03/04 11:25:43;;;;;;;8.07;5.50;;;;;;;;;;4952643;29;20460;-66
2021/03/04 11:28:10;;;;;;;8.47;5.70;;;;;;;;;;4952966;29;20476;-64
2021/03/04 11:30:37;;;;;;;9.50;6.73;;;;;;;;;;4934044;29;20460;-65
2021/03/04 11:33:04;;;;;;;7.07;5.60;;;;;;;;;;4956749;28;20479;-66
2021/03/04 11:35:30;;;;;;;8.20;5.40;;;;;;;;;;4952245;29;20460;-66
2021/03/04 11:37:57;;;;;;;8.83;6.47;;;;;;;;;;4952823;28;20553;-66
2021/03/04 11:40:24;;;;;;;8.70;6.00;;;;;;;;;;4952760;28;20452;-65
2021/03/04 11:42:51;;;;;;;10.47;6.53;;;;;;;;;;4953298;28;20448;-66
2021/03/04 11:45:18;;;;;;;10.67;6.30;;;;;;;;;;4952398;28;20507;-65
2021/03/04 11:47:45;;;;;;;10.70;6.23;;;;;;;;;;4952735;28;20980;-66
2021/03/04 11:50:12;;;;;;;9.67;6.40;;;;;;;;;;4952960;28;20464;-66
2021/03/04 11:52:39;;;;;;;6.23;4.60;;;;;;;;;;4959079;28;20579;-66
2021/03/04 11:55:06;;;;;;;10.33;5.80;;;;;;;;;;4952544;28;20460;-65
2021/03/04 11:57:32;;;;;;;7.10;5.93;;;;;;;;;;4952462;28;20475;-63
2021/03/04 12:00:00;;;;;;;14.33;6.10;;;;;;;;;;4952651;28;20452;-66
2021/03/04 12:02:27;;;;;;;7.30;5.40;;;;;;;;;;4954281;28;20526;-65
2021/03/04 12:04:53;;;;;;;8.07;5.60;;;;;;;;;;4952322;29;20445;-66
2021/03/04 12:07:21;;;;;;;8.60;5.80;;;;;;;;;;4952470;28;20488;-66
2021/03/04 12:09:48;;;;;;;8.70;5.40;;;;;;;;;;4956179;29;20459;-66
2021/03/04 12:12:14;;;;;;;6.07;5.10;;;;;;;;;;4955615;29;21018;-66
2021/03/04 12:14:41;;;;;;;15.80;5.57;;;;;;;;;;4960430;28;20466;-66
2021/03/04 12:17:09;;;;;;;10.13;6.07;;;;;;;;;;4965960;28;20567;-65
2021/03/04 12:19:35;;;;;;;9.23;5.90;;;;;;;;;;4967120;28;20460;-66
2021/03/04 12:22:02;;;;;;;11.77;5.57;;;;;;;;;;4956023;29;20948;-66
2021/03/04 12:24:28;;;;;;;11.40;6.07;;;;;;;;;;4955978;29;20460;-66
2021/03/04 12:26:55;;;;;;;11.27;5.50;;;;;;;;;;4956175;29;20515;-65
2021/03/04 12:29:22;;;;;;;6.93;5.93;;;;;;;;;;4955390;29;20558;-66
2021/03/04 12:31:49;;;;;;;9.40;6.00;;;;;;;;;;4962685;28;20486;-66
2021/03/04 12:34:16;;;;;;;11.13;5.63;;;;;;;;;;4966921;28;20484;-66
2021/03/04 12:36:43;;;;;;;7.60;6.50;;;;;;;;;;4955635;28;20688;-66
2021/03/04 12:39:10;;;;;;;8.10;7.17;;;;;;;;;;4955500;28;20463;-66
2021/03/04 12:41:37;;;;;;;10.07;6.83;;;;;;;;;;4956138;29;20475;-66
2021/03/04 12:44:04;;;;;;;10.20;7.37;;;;;;;;;;4954977;29;20459;-66
2021/03/04 12:46:30;;;;;;;7.70;6.93;;;;;;;;;;4957208;28;20479;-66
2021/03/04 12:48:57;;;;;;;10.73;6.50;;;;;;;;;;4971099;28;20452;-64
2021/03/04 12:51:24;;;;;;;9.20;7.17;;;;;;;;;;4955384;28;20495;-63
2021/03/04 12:53:51;;;;;;;13.47;7.53;;;;;;;;;;4955236;28;21315;-64
2021/03/04 12:56:17;;;;;;;10.57;7.00;;;;;;;;;;4955001;28;20490;-63
2021/03/04 12:58:44;;;;;;;10.37;7.17;;;;;;;;;;4955121;29;20955;-63
2021/03/04 13:01:11;;;;;;;9.23;7.97;;;;;;;;;;4955337;28;20491;-63
2021/03/04 13:03:38;;;;;;;10.83;8.83;;;;;;;;;;4954232;28;20452;-64
2021/03/04 13:06:04;;;;;;;10.40;8.00;;;;;;;;;;4950404;28;20464;-64
2021/03/04 13:08:32;;;;;;;11.97;8.57;;;;;;;;;;4993615;23;20787;-65
2021/03/04 13:10:58;;;;;;;11.77;8.20;;;;;;;;;;4970310;28;20498;-65
2021/03/04 13:13:25;;;;;;;12.20;7.93;;;;;;;;;;4974130;28;20444;-65
2021/03/04 13:15:52;;;;;;;10.47;8.23;;;;;;;;;;4985992;28;20450;-65
2021/03/04 13:18:18;;;;;;;11.43;9.07;;;;;;;;;;4984492;28;20471;-63
2021/03/04 13:20:45;;;;;;;10.47;8.93;;;;;;;;;;4975608;28;20455;-66
2021/03/04 13:23:12;;;;;;;11.93;8.50;;;;;;;;;;4971152;28;20451;-66
2021/03/04 13:25:39;;;;;;;9.57;8.20;;;;;;;;;;4973025;28;20454;-64
2021/03/04 13:28:06;;;;;;;11.07;8.73;;;;;;;;;;4972193;28;20475;-65
2021/03/04 13:30:33;;;;;;;9.00;8.07;;;;;;;;;;4968505;28;20461;-65
2021/03/04 13:32:59;;;;;;;9.20;8.23;;;;;;;;;;4973744;28;21071;-66
2021/03/04 13:35:26;;;;;;;8.77;7.97;;;;;;;;;;4973282;28;20447;-65
2021/03/04 13:37:52;;;;;;;10.80;9.10;;;;;;;;;;4972972;28;20456;-66
2021/03/04 13:40:21;;;;;;;9.47;8.50;;;;;;;;;;4973649;28;20472;-65
2021/03/04 13:42:48;;;;;;;8.77;7.90;;;;;;;;;;4973378;28;20452;-66
2021/03/04 13:45:15;;;;;;;10.33;7.97;;;;;;;;;;4973686;28;20458;-65
2021/03/04 13:47:41;;;;;;;10.40;8.30;;;;;;;;;;4972613;28;20455;-66
2021/03/04 13:50:08;;;;;;;9.23;8.10;;;;;;;;;;4972876;28;20471;-65
2021/03/04 13:52:35;;;;;;;10.67;8.20;;;;;;;;;;4972331;28;20978;-64
2021/03/04 13:55:02;;;;;;;9.73;7.10;;;;;;;;;;4972937;28;20463;-64
2021/03/04 13:57:28;;;;;;;10.37;7.17;;;;;;;;;;4972516;28;20485;-66
2021/03/04 13:59:56;;;;;;;10.57;8.03;;;;;;;;;;4978390;28;20468;-66
2021/03/04 14:02:22;;;;;;;7.70;6.90;;;;;;;;;;4972773;28;20448;-66
2021/03/04 14:04:49;;;;;;;8.73;7.93;;;;;;;;;;4973102;28;20946;-66
2021/03/04 14:07:16;;;;;;;9.33;7.70;;;;;;;;;;4972899;28;20892;-65
2021/03/04 14:09:42;;;;;;;8.90;7.70;;;;;;;;;;4972671;28;20487;-66
2021/03/04 14:12:09;;;;;;;13.43;7.37;;;;;;;;;;4972785;28;20483;-66
2021/03/04 14:14:37;;;;;;;8.67;7.77;;;;;;;;;;4977313;28;20458;-65
2021/03/04 14:17:04;;;;;;;12.60;7.97;;;;;;;;;;4976360;28;20487;-66
2021/03/04 14:19:31;;;;;;;8.70;7.30;;;;;;;;;;4973958;28;20471;-65
2021/03/04 14:21:58;;;;;;;8.80;7.77;;;;;;;;;;4972326;28;20455;-65
2021/03/04 14:24:24;;;;;;;10.60;8.20;;;;;;;;;;4972132;28;20893;-65
2021/03/04 14:26:51;;;;;;;10.63;7.97;;;;;;;;;;4972362;28;20451;-65
2021/03/04 14:29:20;;;;;;;10.07;8.20;;;;;;;;;;4972450;28;20507;-66
2021/03/04 14:31:47;;;;;;;9.33;8.17;;;;;;;;;;4983333;28;20478;-65
2021/03/04 14:34:15;;;;;;;7.87;7.07;;;;;;;;;;4981884;28;20459;-65
2021/03/04 14:36:42;;;;;;;12.23;8.03;;;;;;;;;;4972638;28;20443;-65
2021/03/04 14:39:08;;;;;;;9.60;7.57;;;;;;;;;;4972070;28;20475;-65